Time;durP1;ratioP1;P1;durP2;ratioP2;P2;SDS_P1;SDS_P2;PMS_P1;PMS_P2;Temp;Humidity;BMP_temperature;BMP_pressure;BME280_temperature;BME280_humidity;BME280_pressure;Samples;Min_cycle;Max_cycle;Signal;HPM_P1;HPM_P2
2022/04/03 00:00:05;;;;;;;4.68;2.45;;;;;;;;;;4910510;29;20040;-60
2022/04/03 00:02:31;;;;;;;4.30;2.55;;;;;;;;;;4910866;29;20032;-60
2022/04/03 00:04:56;;;;;;;4.90;2.47;;;;;;;;;;4914033;29;20416;-60
2022/04/03 00:07:22;;;;;;;5.10;2.80;;;;;;;;;;4908718;29;20043;-60
2022/04/03 00:09:47;;;;;;;4.82;2.85;;;;;;;;;;4910445;29;20127;-60
2022/04/03 00:12:13;;;;;;;4.82;2.60;;;;;;;;;;4905279;29;20238;-60
2022/04/03 00:14:38;;;;;;;6.32;2.88;;;;;;;;;;4903652;29;20100;-60
2022/04/03 00:17:03;;;;;;;4.22;2.47;;;;;;;;;;4905760;29;20108;-59
2022/04/03 00:19:30;;;;;;;4.13;2.50;;;;;;;;;;4906469;29;20035;-58
2022/04/03 00:21:55;;;;;;;3.97;2.40;;;;;;;;;;4910358;29;20043;-61
2022/04/03 00:24:21;;;;;;;4.72;2.88;;;;;;;;;;4910518;29;20028;-63
2022/04/03 00:26:46;;;;;;;6.30;2.85;;;;;;;;;;4911777;29;21171;-61
2022/04/03 00:29:12;;;;;;;6.43;2.83;;;;;;;;;;4908275;29;20028;-61
2022/04/03 00:31:37;;;;;;;5.88;3.00;;;;;;;;;;4910898;29;20038;-62
2022/04/03 00:34:03;;;;;;;7.38;2.67;;;;;;;;;;4912069;29;20725;-61
2022/04/03 00:36:28;;;;;;;4.40;2.75;;;;;;;;;;4907066;29;20032;-59
2022/04/03 00:38:53;;;;;;;4.60;2.70;;;;;;;;;;4910616;29;20051;-62
2022/04/03 00:41:22;;;;;;;6.38;2.63;;;;;;;;;;4910110;29;20028;-58
2022/04/03 00:43:48;;;;;;;5.05;2.65;;;;;;;;;;4911942;29;20504;-62
2022/04/03 00:46:18;;;;;;;4.63;2.42;;;;;;;;;;4910717;29;20584;-60
2022/04/03 00:48:46;;;;;;;3.58;2.33;;;;;;;;;;4910011;29;20064;-61
2022/04/03 00:51:11;;;;;;;4.00;2.58;;;;;;;;;;4911727;29;20036;-61
2022/04/03 00:53:37;;;;;;;4.80;2.63;;;;;;;;;;4910242;29;20563;-60
2022/04/03 00:56:03;;;;;;;5.18;2.95;;;;;;;;;;4911718;29;20036;-59
2022/04/03 00:58:29;;;;;;;4.78;2.55;;;;;;;;;;4910773;29;20074;-59
2022/04/03 01:00:54;;;;;;;6.53;2.65;;;;;;;;;;4908523;29;20139;-62
2022/04/03 01:03:20;;;;;;;4.13;2.60;;;;;;;;;;4911910;29;20036;-61
2022/04/03 01:05:45;;;;;;;5.03;2.65;;;;;;;;;;4910254;29;20032;-62
2022/04/03 01:08:10;;;;;;;4.90;2.88;;;;;;;;;;4906542;29;20736;-63
2022/04/03 01:10:36;;;;;;;4.53;2.50;;;;;;;;;;4907171;29;20393;-59
2022/04/03 01:13:02;;;;;;;5.78;2.53;;;;;;;;;;4909685;29;20046;-63
2022/04/03 01:15:27;;;;;;;4.63;2.97;;;;;;;;;;4909984;29;20072;-58
2022/04/03 01:17:52;;;;;;;5.07;2.60;;;;;;;;;;4906931;29;20485;-60
2022/04/03 01:20:18;;;;;;;3.40;2.38;;;;;;;;;;4906856;29;20370;-62
2022/04/03 01:22:45;;;;;;;5.55;2.72;;;;;;;;;;4928060;29;20044;-62
2022/04/03 01:25:10;;;;;;;4.57;2.70;;;;;;;;;;4923730;29;20460;-63
2022/04/03 01:27:36;;;;;;;5.30;2.72;;;;;;;;;;4909423;29;20099;-60
2022/04/03 01:30:04;;;;;;;4.22;2.40;;;;;;;;;;4930627;29;20031;-59
2022/04/03 01:32:29;;;;;;;5.70;2.70;;;;;;;;;;4907341;29;20575;-60
2022/04/03 01:34:54;;;;;;;4.18;2.92;;;;;;;;;;4910016;29;20103;-62
2022/04/03 01:37:20;;;;;;;5.60;2.67;;;;;;;;;;4905590;29;20032;-62
2022/04/03 01:39:45;;;;;;;5.75;2.47;;;;;;;;;;4910376;29;20032;-61
2022/04/03 01:42:11;;;;;;;3.75;2.58;;;;;;;;;;4912194;29;20380;-61
2022/04/03 01:44:36;;;;;;;5.22;2.45;;;;;;;;;;4910113;29;20519;-57
2022/04/03 01:47:02;;;;;;;2.97;2.20;;;;;;;;;;4917804;29;20104;-62
2022/04/03 01:49:28;;;;;;;5.07;2.65;;;;;;;;;;4913356;29;20036;-62
2022/04/03 01:51:53;;;;;;;5.45;2.60;;;;;;;;;;4926834;29;20115;-61
2022/04/03 01:54:18;;;;;;;4.45;2.40;;;;;;;;;;4912669;29;20035;-60
2022/04/03 01:56:45;;;;;;;3.90;2.50;;;;;;;;;;4910177;29;20044;-64
2022/04/03 01:59:10;;;;;;;6.15;2.90;;;;;;;;;;4913161;29;20035;-62
2022/04/03 02:01:36;;;;;;;3.58;2.38;;;;;;;;;;4910408;29;20040;-59
2022/04/03 02:04:03;;;;;;;3.60;2.35;;;;;;;;;;4911307;29;20369;-62
2022/04/03 02:06:29;;;;;;;5.05;2.53;;;;;;;;;;4913402;29;20032;-63
2022/04/03 02:08:55;;;;;;;4.10;2.30;;;;;;;;;;4908368;29;20378;-60
2022/04/03 02:11:20;;;;;;;4.32;2.30;;;;;;;;;;4908310;29;20019;-59
2022/04/03 02:13:45;;;;;;;6.40;3.00;;;;;;;;;;4910451;29;20032;-62
2022/04/03 02:16:11;;;;;;;6.85;2.40;;;;;;;;;;4906828;29;20024;-59
2022/04/03 02:18:37;;;;;;;4.55;2.72;;;;;;;;;;4905829;29;20409;-61
2022/04/03 02:21:03;;;;;;;3.45;2.67;;;;;;;;;;4908927;29;20464;-61
2022/04/03 02:23:29;;;;;;;4.82;2.80;;;;;;;;;;4907202;29;20116;-62
2022/04/03 02:25:54;;;;;;;5.05;2.50;;;;;;;;;;4904817;29;20107;-60
2022/04/03 02:28:20;;;;;;;3.13;2.47;;;;;;;;;;4912460;29;20227;-62
2022/04/03 02:30:47;;;;;;;5.57;2.63;;;;;;;;;;4911411;29;20067;-60
2022/04/03 02:33:12;;;;;;;4.70;2.33;;;;;;;;;;4910206;29;20489;-60
2022/04/03 02:35:38;;;;;;;5.28;2.65;;;;;;;;;;4908973;29;20144;-61
2022/04/03 02:38:03;;;;;;;3.22;2.72;;;;;;;;;;4924633;29;20715;-62
2022/04/03 02:40:29;;;;;;;5.97;2.38;;;;;;;;;;4910167;29;20035;-61
2022/04/03 02:42:54;;;;;;;3.55;2.22;;;;;;;;;;4909285;29;20032;-62
2022/04/03 02:45:20;;;;;;;3.72;2.20;;;;;;;;;;4909072;29;20433;-59
2022/04/03 02:47:53;;;;;;;3.65;2.20;;;;;;;;;;4925195;29;20031;-62
2022/04/03 02:50:20;;;;;;;3.47;2.43;;;;;;;;;;4905445;29;20032;-62
2022/04/03 02:52:51;;;;;;;3.92;2.28;;;;;;;;;;4910121;29;20033;-61
2022/04/03 02:55:17;;;;;;;3.58;2.17;;;;;;;;;;4911500;29;20091;-61
2022/04/03 02:57:43;;;;;;;3.67;2.30;;;;;;;;;;4911646;29;20481;-57
2022/04/03 03:00:14;;;;;;;3.42;2.20;;;;;;;;;;4909449;29;20999;-59
2022/04/03 03:02:47;;;;;;;4.45;2.22;;;;;;;;;;4907893;29;20036;-57
2022/04/03 03:05:14;;;;;;;5.10;2.10;;;;;;;;;;4912823;29;20032;-58
2022/04/03 03:07:41;;;;;;;4.43;2.10;;;;;;;;;;4909255;29;20035;-61
2022/04/03 03:10:09;;;;;;;5.00;2.42;;;;;;;;;;4912728;29;20028;-60
2022/04/03 03:12:35;;;;;;;4.95;2.30;;;;;;;;;;4909761;29;20058;-59
2022/04/03 03:15:02;;;;;;;3.00;2.08;;;;;;;;;;4912812;29;20024;-60
2022/04/03 03:17:28;;;;;;;4.45;1.95;;;;;;;;;;4909353;29;20032;-59
2022/04/03 03:19:53;;;;;;;5.22;2.83;;;;;;;;;;4909955;29;20033;-60
2022/04/03 03:22:19;;;;;;;3.67;2.60;;;;;;;;;;4907320;29;20033;-62
2022/04/03 03:24:45;;;;;;;2.83;2.08;;;;;;;;;;4906892;29;20028;-64
2022/04/03 03:27:11;;;;;;;3.15;1.90;;;;;;;;;;4906658;29;20036;-58
2022/04/03 03:29:36;;;;;;;3.22;1.98;;;;;;;;;;4909377;29;20369;-60
2022/04/03 03:32:02;;;;;;;4.10;2.00;;;;;;;;;;4907232;29;20032;-60
2022/04/03 03:34:27;;;;;;;3.42;2.22;;;;;;;;;;4911343;29;20036;-62
2022/04/03 03:36:52;;;;;;;2.63;1.92;;;;;;;;;;4912400;29;20044;-61
2022/04/03 03:39:18;;;;;;;3.35;2.10;;;;;;;;;;4911804;29;20461;-60
2022/04/03 03:41:43;;;;;;;3.55;1.92;;;;;;;;;;4909720;29;20028;-58
2022/04/03 03:44:12;;;;;;;3.92;2.00;;;;;;;;;;4905395;29;20095;-57
2022/04/03 03:46:39;;;;;;;3.58;1.55;;;;;;;;;;4908385;29;20032;-57
2022/04/03 03:49:06;;;;;;;5.82;1.88;;;;;;;;;;4906284;29;20511;-58
2022/04/03 03:51:32;;;;;;;3.10;2.25;;;;;;;;;;4905560;29;20032;-61
2022/04/03 03:53:58;;;;;;;3.55;1.73;;;;;;;;;;4907571;29;20036;-61
2022/04/03 03:56:23;;;;;;;2.55;1.75;;;;;;;;;;4906248;29;20044;-59
2022/04/03 03:58:48;;;;;;;2.63;1.88;;;;;;;;;;4909301;29;20051;-60
2022/04/03 04:01:14;;;;;;;2.40;1.80;;;;;;;;;;4908052;29;20503;-58
2022/04/03 04:03:40;;;;;;;3.15;1.65;;;;;;;;;;4909532;29;20515;-60
2022/04/03 04:06:06;;;;;;;3.55;1.85;;;;;;;;;;4907689;29;20792;-57
2022/04/03 04:08:32;;;;;;;2.83;1.73;;;;;;;;;;4907215;29;20040;-58
2022/04/03 04:10:58;;;;;;;4.65;2.22;;;;;;;;;;4911095;29;20485;-61
2022/04/03 04:13:24;;;;;;;2.58;1.85;;;;;;;;;;4909234;29;20063;-60
2022/04/03 04:15:50;;;;;;;2.53;1.83;;;;;;;;;;4911388;29;20029;-58
2022/04/03 04:18:15;;;;;;;2.00;1.70;;;;;;;;;;4931752;29;20037;-60
2022/04/03 04:20:40;;;;;;;2.92;1.77;;;;;;;;;;4908146;29;20456;-58
2022/04/03 04:23:06;;;;;;;4.10;1.60;;;;;;;;;;4911111;29;20032;-61
2022/04/03 04:25:31;;;;;;;3.25;1.90;;;;;;;;;;4908205;29;20039;-58
2022/04/03 04:28:00;;;;;;;2.60;1.92;;;;;;;;;;4913703;29;20032;-57
2022/04/03 04:30:25;;;;;;;3.42;1.80;;;;;;;;;;4910410;29;20400;-60
2022/04/03 04:32:50;;;;;;;4.40;2.05;;;;;;;;;;4910711;29;20038;-58
2022/04/03 04:35:16;;;;;;;4.25;2.15;;;;;;;;;;4910833;29;20056;-58
2022/04/03 04:37:42;;;;;;;2.75;1.73;;;;;;;;;;4908287;29;20139;-58
2022/04/03 04:40:09;;;;;;;3.85;1.80;;;;;;;;;;4910149;29;20028;-58
2022/04/03 04:42:35;;;;;;;3.45;1.90;;;;;;;;;;4914227;29;20443;-58
2022/04/03 04:45:01;;;;;;;3.90;1.73;;;;;;;;;;4911094;29;20036;-58
2022/04/03 04:47:26;;;;;;;4.07;2.00;;;;;;;;;;4911625;29;20036;-58
2022/04/03 04:49:51;;;;;;;5.40;1.73;;;;;;;;;;4910535;29;20054;-59
2022/04/03 04:52:17;;;;;;;3.88;1.85;;;;;;;;;;4910974;29;20489;-58
2022/04/03 04:54:43;;;;;;;2.15;1.58;;;;;;;;;;4904905;29;20023;-57
2022/04/03 04:57:08;;;;;;;2.60;1.80;;;;;;;;;;4911285;29;20066;-57
2022/04/03 04:59:34;;;;;;;3.60;1.83;;;;;;;;;;4910046;29;20036;-58
2022/04/03 05:01:59;;;;;;;3.92;2.00;;;;;;;;;;4907565;29;20088;-57
2022/04/03 05:04:26;;;;;;;3.38;1.75;;;;;;;;;;4905737;29;20032;-60
2022/04/03 05:06:52;;;;;;;2.72;1.77;;;;;;;;;;4909530;29;20070;-58
2022/04/03 05:09:19;;;;;;;2.15;1.63;;;;;;;;;;4904676;29;20044;-56
2022/04/03 05:11:46;;;;;;;2.70;1.55;;;;;;;;;;4907516;29;20075;-58
2022/04/03 05:14:13;;;;;;;2.22;1.38;;;;;;;;;;4907941;29;20062;-57
2022/04/03 05:16:39;;;;;;;3.13;1.90;;;;;;;;;;4910115;29;20055;-59
2022/04/03 05:19:04;;;;;;;2.67;1.90;;;;;;;;;;4904877;29;20033;-60
2022/04/03 05:21:30;;;;;;;2.90;1.63;;;;;;;;;;4908418;29;20035;-59
2022/04/03 05:23:55;;;;;;;3.15;1.70;;;;;;;;;;4907061;29;20400;-61
2022/04/03 05:26:21;;;;;;;3.80;1.83;;;;;;;;;;4907979;29;20036;-59
2022/04/03 05:28:46;;;;;;;3.75;1.50;;;;;;;;;;4910437;29;20220;-58
2022/04/03 05:31:11;;;;;;;3.03;1.65;;;;;;;;;;4907314;29;20028;-58
2022/04/03 05:33:37;;;;;;;4.57;2.00;;;;;;;;;;4907352;29;20444;-58
2022/04/03 05:36:03;;;;;;;1.90;1.52;;;;;;;;;;4908822;29;20132;-61
2022/04/03 05:38:29;;;;;;;4.60;2.60;;;;;;;;;;4908405;29;20044;-61
2022/04/03 05:40:55;;;;;;;3.92;1.80;;;;;;;;;;4909991;29;20032;-60
2022/04/03 05:43:20;;;;;;;3.72;1.90;;;;;;;;;;4909015;29;20062;-59
2022/04/03 05:45:46;;;;;;;3.13;1.85;;;;;;;;;;4908512;29;20099;-66
2022/04/03 05:48:12;;;;;;;3.80;1.75;;;;;;;;;;4909603;29;20143;-58
2022/04/03 05:50:37;;;;;;;3.42;1.90;;;;;;;;;;4908949;29;20064;-58
2022/04/03 05:53:03;;;;;;;4.10;2.03;;;;;;;;;;4907730;29;20039;-58
2022/04/03 05:55:28;;;;;;;3.15;2.00;;;;;;;;;;4908644;29;20110;-57
2022/04/03 05:57:54;;;;;;;4.97;1.77;;;;;;;;;;4912346;29;20473;-58
2022/04/03 06:00:22;;;;;;;3.35;1.92;;;;;;;;;;4905096;29;20365;-61
2022/04/03 06:02:53;;;;;;;1.75;1.50;;;;;;;;;;4907804;29;20040;-62
2022/04/03 06:05:40;;;;;;;3.10;1.67;;;;;;;;;;4906520;29;20044;-61
2022/04/03 06:08:06;;;;;;;3.28;1.95;;;;;;;;;;4907284;29;20036;-61
2022/04/03 06:10:34;;;;;;;2.50;1.77;;;;;;;;;;4907953;29;20035;-61
2022/04/03 06:13:02;;;;;;;2.78;1.83;;;;;;;;;;4911320;29;20052;-58
2022/04/03 06:15:38;;;;;;;3.03;1.75;;;;;;;;;;4905702;29;20035;-58
2022/04/03 06:18:06;;;;;;;3.80;1.70;;;;;;;;;;4907840;29;20449;-60
2022/04/03 06:20:32;;;;;;;2.60;1.75;;;;;;;;;;4907255;29;20028;-60
2022/04/03 06:22:59;;;;;;;2.28;1.67;;;;;;;;;;4907076;29;20036;-61
2022/04/03 06:25:25;;;;;;;5.88;1.60;;;;;;;;;;4906606;29;20041;-61
2022/04/03 06:27:54;;;;;;;2.15;1.60;;;;;;;;;;4911641;29;20035;-63
2022/04/03 06:30:22;;;;;;;3.17;1.30;;;;;;;;;;4909650;29;20028;-65
2022/04/03 06:32:47;;;;;;;2.38;1.48;;;;;;;;;;4911055;29;20477;-64
2022/04/03 06:35:13;;;;;;;5.05;1.52;;;;;;;;;;4913876;29;20035;-64
2022/04/03 06:37:39;;;;;;;3.28;1.75;;;;;;;;;;4911313;29;20046;-63
2022/04/03 06:40:07;;;;;;;1.95;1.40;;;;;;;;;;4913399;29;20047;-62
2022/04/03 06:42:32;;;;;;;1.70;1.40;;;;;;;;;;4913754;29;20111;-61
2022/04/03 06:44:59;;;;;;;3.08;1.58;;;;;;;;;;4912416;29;20040;-62
2022/04/03 06:47:25;;;;;;;2.22;1.23;;;;;;;;;;4911744;29;20028;-62
2022/04/03 06:49:50;;;;;;;1.58;1.33;;;;;;;;;;4908722;29;20170;-63
2022/04/03 06:52:16;;;;;;;2.35;1.50;;;;;;;;;;4913257;29;20413;-62
2022/04/03 06:54:42;;;;;;;2.38;1.38;;;;;;;;;;4911375;29;20028;-61
2022/04/03 06:57:08;;;;;;;1.45;1.13;;;;;;;;;;4907399;29;20024;-61
2022/04/03 06:59:33;;;;;;;3.22;1.33;;;;;;;;;;4911794;29;20028;-62
2022/04/03 07:01:59;;;;;;;3.85;1.25;;;;;;;;;;4911436;29;20048;-61
2022/04/03 07:04:25;;;;;;;1.63;1.00;;;;;;;;;;4911929;29;20047;-62
2022/04/03 07:06:50;;;;;;;2.05;1.10;;;;;;;;;;4912410;29;20028;-62
2022/04/03 07:09:15;;;;;;;2.78;1.25;;;;;;;;;;4911042;29;20044;-62
2022/04/03 07:11:41;;;;;;;1.05;0.80;;;;;;;;;;4911663;29;20028;-63
2022/04/03 07:14:06;;;;;;;1.23;0.93;;;;;;;;;;4910475;29;20484;-61
2022/04/03 07:16:32;;;;;;;1.67;0.93;;;;;;;;;;4908774;29;20036;-62
2022/04/03 07:18:57;;;;;;;1.63;0.95;;;;;;;;;;4910888;29;20120;-60
2022/04/03 07:21:23;;;;;;;2.10;1.02;;;;;;;;;;4909692;29;20036;-61
2022/04/03 07:23:49;;;;;;;2.15;0.90;;;;;;;;;;4912240;29;20038;-64
2022/04/03 07:26:14;;;;;;;1.00;0.90;;;;;;;;;;4910502;29;20032;-62
2022/04/03 07:28:40;;;;;;;1.85;0.85;;;;;;;;;;4913114;29;20028;-62
2022/04/03 07:31:07;;;;;;;1.27;0.90;;;;;;;;;;4912342;29;20032;-64
2022/04/03 07:33:32;;;;;;;3.47;0.90;;;;;;;;;;4927955;29;20028;-60
2022/04/03 07:35:57;;;;;;;1.15;0.75;;;;;;;;;;4911601;29;20116;-58
2022/04/03 07:38:23;;;;;;;1.70;0.80;;;;;;;;;;4910426;29;20454;-64
2022/04/03 07:40:48;;;;;;;0.90;0.63;;;;;;;;;;4908308;29;20028;-61
2022/04/03 07:43:18;;;;;;;1.40;0.73;;;;;;;;;;4912091;29;20587;-62
2022/04/03 07:45:44;;;;;;;1.63;0.90;;;;;;;;;;4907722;29;20032;-61
2022/04/03 07:48:10;;;;;;;1.88;0.68;;;;;;;;;;4907923;29;20068;-69
2022/04/03 07:50:36;;;;;;;2.13;1.05;;;;;;;;;;4910834;29;20716;-61
2022/04/03 07:53:02;;;;;;;1.38;0.68;;;;;;;;;;4909906;29;20035;-61
2022/04/03 07:55:28;;;;;;;1.60;0.60;;;;;;;;;;4910971;29;20472;-62
2022/04/03 07:57:53;;;;;;;2.83;0.95;;;;;;;;;;4912396;29;20547;-60
2022/04/03 08:00:19;;;;;;;2.13;0.73;;;;;;;;;;4910604;29;20076;-63
2022/04/03 08:02:44;;;;;;;2.75;0.70;;;;;;;;;;4909618;29;20039;-61
2022/04/03 08:05:10;;;;;;;0.70;0.70;;;;;;;;;;4910901;29;20194;-61
2022/04/03 08:07:37;;;;;;;3.05;0.70;;;;;;;;;;4911513;29;20511;-62
2022/04/03 08:10:08;;;;;;;1.08;0.70;;;;;;;;;;4908580;29;20511;-64
2022/04/03 08:12:35;;;;;;;1.55;0.80;;;;;;;;;;4911320;29;20046;-63
2022/04/03 08:15:01;;;;;;;0.50;0.50;;;;;;;;;;4909364;29;20396;-63
2022/04/03 08:17:26;;;;;;;3.25;0.88;;;;;;;;;;4909836;29;20032;-63
2022/04/03 08:19:52;;;;;;;1.42;0.80;;;;;;;;;;4909689;29;20608;-62
2022/04/03 08:22:17;;;;;;;1.10;0.82;;;;;;;;;;4911346;29;20942;-62
2022/04/03 08:24:43;;;;;;;0.73;0.73;;;;;;;;;;4908110;29;20029;-63
2022/04/03 08:27:10;;;;;;;1.17;0.77;;;;;;;;;;4908987;29;20115;-63
2022/04/03 08:29:35;;;;;;;2.05;0.70;;;;;;;;;;4911784;29;20039;-62
2022/04/03 08:32:01;;;;;;;1.58;0.88;;;;;;;;;;4909195;29;20028;-65
2022/04/03 08:34:26;;;;;;;1.77;0.60;;;;;;;;;;4912404;29;20115;-58
2022/04/03 08:36:52;;;;;;;1.40;0.70;;;;;;;;;;4910830;29;20698;-62
2022/04/03 08:39:17;;;;;;;1.05;0.70;;;;;;;;;;4911184;29;20127;-63
2022/04/03 08:41:43;;;;;;;2.65;0.88;;;;;;;;;;4909635;29;20501;-66
2022/04/03 08:44:08;;;;;;;1.02;0.82;;;;;;;;;;4912092;29;20036;-65
2022/04/03 08:46:36;;;;;;;0.88;0.70;;;;;;;;;;4909401;29;20024;-54
2022/04/03 08:49:01;;;;;;;0.70;0.70;;;;;;;;;;4909626;29;20028;-61
2022/04/03 08:51:32;;;;;;;1.40;0.93;;;;;;;;;;4909500;29;20034;-62
2022/04/03 08:53:57;;;;;;;3.55;0.90;;;;;;;;;;4905852;29;20039;-62
2022/04/03 08:56:23;;;;;;;1.15;0.60;;;;;;;;;;4910075;29;20044;-61
2022/04/03 08:58:48;;;;;;;0.60;0.60;;;;;;;;;;4911374;29;20349;-64
2022/04/03 09:01:16;;;;;;;1.05;0.73;;;;;;;;;;4910069;29;20061;-62
2022/04/03 09:03:42;;;;;;;1.17;0.80;;;;;;;;;;4908470;29;20047;-63
2022/04/03 09:06:15;;;;;;;1.88;0.80;;;;;;;;;;4908936;29;20028;-65
2022/04/03 09:08:41;;;;;;;1.83;0.75;;;;;;;;;;4910289;29;20524;-64
2022/04/03 09:11:07;;;;;;;5.65;0.90;;;;;;;;;;4911951;29;20036;-65
2022/04/03 09:13:34;;;;;;;1.02;0.70;;;;;;;;;;4909632;29;20083;-61
2022/04/03 09:16:00;;;;;;;2.00;0.57;;;;;;;;;;4912943;29;20480;-61
2022/04/03 09:19:04;;;;;;;0.77;0.73;;;;;;;;;;4914723;29;20097;-61
2022/04/03 09:21:30;;;;;;;;;;;;;;;;;;4861024;29;20040;-61
2022/04/03 09:24:11;;;;;;;0.65;0.60;;;;;;;;;;4862628;29;19920;-63
2022/04/03 09:26:39;;;;;;;2.17;0.70;;;;;;;;;;4887386;29;20040;-63
2022/04/03 09:29:23;;;;;;;0.73;0.73;;;;;;;;;;4905236;29;20681;-62
2022/04/03 09:31:48;;;;;;;1.27;0.80;;;;;;;;;;4931829;29;20031;-62
2022/04/03 09:34:19;;;;;;;1.00;0.70;;;;;;;;;;4907481;29;20028;-63
2022/04/03 09:36:56;;;;;;;1.15;0.82;;;;;;;;;;4908561;29;20473;-60
2022/04/03 09:39:24;;;;;;;1.02;0.70;;;;;;;;;;4913678;29;20039;-61
2022/04/03 09:41:59;;;;;;;4.00;0.80;;;;;;;;;;4911673;29;20036;-62
2022/04/03 09:44:26;;;;;;;1.10;0.73;;;;;;;;;;4911533;29;20119;-62
2022/04/03 09:47:14;;;;;;;1.58;1.00;;;;;;;;;;4911204;29;20032;-61
2022/04/03 09:49:41;;;;;;;2.03;0.80;;;;;;;;;;4908430;29;20036;-63
2022/04/03 09:52:07;;;;;;;1.45;1.00;;;;;;;;;;4908164;29;20119;-62
2022/04/03 09:54:32;;;;;;;1.75;0.82;;;;;;;;;;4907473;29;20111;-63
2022/04/03 09:57:20;;;;;;;1.15;0.80;;;;;;;;;;4909112;29;20488;-60
2022/04/03 09:59:53;;;;;;;0.68;0.57;;;;;;;;;;4912336;29;20078;-63
2022/04/03 10:02:20;;;;;;;0.95;0.75;;;;;;;;;;4905843;29;20544;-63
2022/04/03 10:04:46;;;;;;;2.28;0.77;;;;;;;;;;4908326;29;20037;-60
2022/04/03 10:07:13;;;;;;;1.20;0.90;;;;;;;;;;4913992;29;20439;-60
2022/04/03 10:09:50;;;;;;;0.82;0.60;;;;;;;;;;4913711;29;20035;-64
2022/04/03 10:12:17;;;;;;;0.70;0.70;;;;;;;;;;4913333;29;20032;-61
2022/04/03 10:14:49;;;;;;;3.15;0.80;;;;;;;;;;4917056;29;20036;-61
2022/04/03 10:17:16;;;;;;;1.48;1.00;;;;;;;;;;4913469;29;20036;-59
2022/04/03 10:19:42;;;;;;;1.85;0.90;;;;;;;;;;4914867;29;20035;-61
2022/04/03 10:22:13;;;;;;;1.17;0.70;;;;;;;;;;4915969;29;20032;-61
2022/04/03 10:24:41;;;;;;;0.77;0.77;;;;;;;;;;4912163;29;20062;-61
2022/04/03 10:27:14;;;;;;;1.92;0.80;;;;;;;;;;4912706;29;20039;-61
2022/04/03 10:29:42;;;;;;;1.05;0.80;;;;;;;;;;4915051;29;20039;-64
2022/04/03 10:32:08;;;;;;;1.02;0.70;;;;;;;;;;4912522;29;20571;-62
2022/04/03 10:34:48;;;;;;;1.08;0.70;;;;;;;;;;4915354;29;20377;-61
2022/04/03 10:37:22;;;;;;;0.52;0.50;;;;;;;;;;4934838;29;20103;-61
2022/04/03 10:39:51;;;;;;;0.93;0.60;;;;;;;;;;4908417;29;20075;-62
2022/04/03 10:42:24;;;;;;;1.13;0.70;;;;;;;;;;4913090;29;20095;-63
2022/04/03 10:45:11;;;;;;;1.50;0.80;;;;;;;;;;4912437;29;20063;-62
2022/04/03 10:47:42;;;;;;;1.40;0.95;;;;;;;;;;4932623;29;20040;-61
2022/04/03 10:50:10;;;;;;;1.17;0.95;;;;;;;;;;4929756;29;20044;-63
2022/04/03 10:52:38;;;;;;;1.10;0.90;;;;;;;;;;4911779;29;20032;-62
2022/04/03 10:55:21;;;;;;;1.27;0.80;;;;;;;;;;4908751;29;20400;-62
2022/04/03 10:58:02;;;;;;;1.85;0.90;;;;;;;;;;4911128;29;20334;-62
2022/04/03 11:00:27;;;;;;;1.65;0.77;;;;;;;;;;4909681;29;20390;-62
2022/04/03 11:02:55;;;;;;;1.95;0.73;;;;;;;;;;4912948;29;20032;-61
2022/04/03 11:05:21;;;;;;;1.23;0.70;;;;;;;;;;4911773;29;20066;-62
2022/04/03 11:07:50;;;;;;;1.90;0.82;;;;;;;;;;4909323;29;20139;-63
2022/04/03 11:10:35;;;;;;;1.90;1.00;;;;;;;;;;4912436;29;20333;-63
2022/04/03 11:13:01;;;;;;;2.15;0.90;;;;;;;;;;4910568;29;20362;-63
2022/04/03 11:15:26;;;;;;;1.10;1.00;;;;;;;;;;4912624;29;20160;-60
2022/04/03 11:17:53;;;;;;;1.20;0.75;;;;;;;;;;4912149;29;20031;-60
2022/04/03 11:20:28;;;;;;;1.00;0.93;;;;;;;;;;4908305;29;20491;-63
2022/04/03 11:22:54;;;;;;;1.10;1.00;;;;;;;;;;4932626;29;20484;-62
2022/04/03 11:25:21;;;;;;;1.67;0.90;;;;;;;;;;4911642;29;20039;-64
2022/04/03 11:27:47;;;;;;;0.88;0.80;;;;;;;;;;4911937;29;20516;-63
2022/04/03 11:30:13;;;;;;;1.42;0.77;;;;;;;;;;4909765;29;20059;-63
2022/04/03 11:32:39;;;;;;;1.88;0.80;;;;;;;;;;4911996;29;20044;-61
2022/04/03 11:35:05;;;;;;;1.50;0.90;;;;;;;;;;4911675;29;20020;-64
2022/04/03 11:37:30;;;;;;;0.93;0.90;;;;;;;;;;4911748;29;20152;-62
2022/04/03 11:39:57;;;;;;;1.65;0.95;;;;;;;;;;4908402;29;20032;-61
2022/04/03 11:42:23;;;;;;;1.92;1.00;;;;;;;;;;4906795;29;20590;-63
2022/04/03 11:44:53;;;;;;;1.27;1.00;;;;;;;;;;4909826;29;20140;-63
2022/04/03 11:47:21;;;;;;;1.10;1.00;;;;;;;;;;4908969;29;20404;-62
2022/04/03 11:50:03;;;;;;;2.72;1.00;;;;;;;;;;4909281;29;20035;-62
2022/04/03 11:52:29;;;;;;;1.17;0.90;;;;;;;;;;4910877;29;20401;-62
2022/04/03 11:54:56;;;;;;;0.93;0.93;;;;;;;;;;4909230;29;20031;-60
2022/04/03 11:57:21;;;;;;;1.88;1.50;;;;;;;;;;4909750;29;20094;-65
2022/04/03 11:59:48;;;;;;;2.00;1.10;;;;;;;;;;4909102;29;20091;-64
2022/04/03 12:02:17;;;;;;;1.13;0.95;;;;;;;;;;4910725;29;20496;-62
2022/04/03 12:04:43;;;;;;;1.52;1.15;;;;;;;;;;4911883;29;20069;-65
2022/04/03 12:07:13;;;;;;;1.33;1.00;;;;;;;;;;4911123;29;20087;-63
2022/04/03 12:09:41;;;;;;;1.10;1.00;;;;;;;;;;4908947;29;20028;-65
2022/04/03 12:12:07;;;;;;;2.13;1.05;;;;;;;;;;4910227;29;20043;-62
2022/04/03 12:14:34;;;;;;;1.90;1.08;;;;;;;;;;4909648;29;20107;-65
2022/04/03 12:17:00;;;;;;;1.38;1.10;;;;;;;;;;4909112;29;20032;-63
2022/04/03 12:19:28;;;;;;;0.95;0.90;;;;;;;;;;4905616;29;20393;-61
2022/04/03 12:22:00;;;;;;;1.20;1.10;;;;;;;;;;4907874;29;20047;-66
2022/04/03 12:24:29;;;;;;;1.35;1.00;;;;;;;;;;4909798;29;20091;-62
2022/04/03 12:26:59;;;;;;;2.13;1.00;;;;;;;;;;4909196;29;20028;-67
2022/04/03 12:29:26;;;;;;;1.90;1.33;;;;;;;;;;4912830;29;20036;-61
2022/04/03 12:32:09;;;;;;;1.60;1.05;;;;;;;;;;4914405;29;20024;-64
2022/04/03 12:34:40;;;;;;;1.23;1.13;;;;;;;;;;4911131;29;20028;-64
2022/04/03 12:37:07;;;;;;;0.85;0.80;;;;;;;;;;4913113;29;20036;-64
2022/04/03 12:39:37;;;;;;;1.58;1.10;;;;;;;;;;4914441;29;20055;-63
2022/04/03 12:42:10;;;;;;;2.45;1.02;;;;;;;;;;4909604;29;20028;-63
2022/04/03 12:44:57;;;;;;;1.45;0.93;;;;;;;;;;4911141;29;20036;-62
2022/04/03 12:47:43;;;;;;;2.55;1.10;;;;;;;;;;4911170;29;20036;-61
2022/04/03 12:50:13;;;;;;;1.13;0.95;;;;;;;;;;4908939;29;20039;-63
2022/04/03 12:52:40;;;;;;;1.15;1.00;;;;;;;;;;4909800;29;20031;-60
2022/04/03 12:55:07;;;;;;;1.00;0.95;;;;;;;;;;4911453;29;20464;-61
2022/04/03 13:00:18;;;;;;;1.38;0.80;;;;;;;;;;4909775;29;20039;-64
2022/04/03 13:02:47;;;;;;;1.10;0.93;;;;;;;;;;4911322;29;20612;-66
2022/04/03 13:05:16;;;;;;;2.13;0.90;;;;;;;;;;4909628;29;20034;-63
2022/04/03 13:07:43;;;;;;;1.33;0.82;;;;;;;;;;4906877;29;20123;-62
2022/04/03 13:10:19;;;;;;;2.83;1.00;;;;;;;;;;4909820;29;20055;-59
2022/04/03 13:12:50;;;;;;;4.53;0.90;;;;;;;;;;4914048;29;20110;-65
2022/04/03 13:15:17;;;;;;;1.92;1.10;;;;;;;;;;4910875;29;20583;-66
2022/04/03 13:17:44;;;;;;;3.00;1.10;;;;;;;;;;4915650;29;20404;-64
2022/04/03 13:20:10;;;;;;;1.65;1.10;;;;;;;;;;4911048;29;20020;-62
2022/04/03 13:22:36;;;;;;;0.80;0.80;;;;;;;;;;4911059;29;20503;-64
2022/04/03 13:25:01;;;;;;;1.55;0.90;;;;;;;;;;4936877;29;20111;-63
2022/04/03 13:27:28;;;;;;;1.05;0.95;;;;;;;;;;4911701;29;20388;-63
2022/04/03 13:29:53;;;;;;;1.25;1.00;;;;;;;;;;4910651;29;20540;-62
2022/04/03 13:32:21;;;;;;;1.02;1.00;;;;;;;;;;4909078;29;20028;-63
2022/04/03 13:34:50;;;;;;;3.33;1.10;;;;;;;;;;4910421;29;20028;-61
2022/04/03 13:37:15;;;;;;;1.38;1.13;;;;;;;;;;4910371;29;20024;-63
2022/04/03 13:39:41;;;;;;;2.53;1.00;;;;;;;;;;4910950;29;20088;-63
2022/04/03 13:42:10;;;;;;;1.67;1.00;;;;;;;;;;4910436;29;20432;-63
2022/04/03 13:44:37;;;;;;;3.63;1.00;;;;;;;;;;4913138;29;20032;-67
2022/04/03 13:47:03;;;;;;;1.13;0.90;;;;;;;;;;4911559;29;20040;-63
2022/04/03 13:49:29;;;;;;;3.90;1.10;;;;;;;;;;4912049;29;20032;-63
2022/04/03 13:51:55;;;;;;;2.00;1.10;;;;;;;;;;4911954;29;20056;-62
2022/04/03 13:54:20;;;;;;;1.73;1.33;;;;;;;;;;4907412;29;20556;-63
2022/04/03 13:56:45;;;;;;;3.45;1.20;;;;;;;;;;4910604;29;20040;-62
2022/04/03 13:59:11;;;;;;;1.50;1.08;;;;;;;;;;4907147;29;20024;-62
2022/04/03 14:01:37;;;;;;;2.25;1.00;;;;;;;;;;4910939;29;20118;-61
2022/04/03 14:04:04;;;;;;;1.40;1.15;;;;;;;;;;4907787;29;20032;-63
2022/04/03 14:06:30;;;;;;;1.98;1.25;;;;;;;;;;4907871;29;20032;-63
2022/04/03 14:08:55;;;;;;;1.63;1.00;;;;;;;;;;4907291;29;20024;-62
2022/04/03 14:11:21;;;;;;;1.85;1.33;;;;;;;;;;4908058;29;20135;-68
2022/04/03 14:13:47;;;;;;;1.95;1.30;;;;;;;;;;4907094;29;20094;-62
2022/04/03 14:16:12;;;;;;;1.20;0.90;;;;;;;;;;4909728;29;20032;-62
2022/04/03 14:18:38;;;;;;;1.48;1.20;;;;;;;;;;4913320;29;20585;-65
2022/04/03 14:21:06;;;;;;;2.40;1.20;;;;;;;;;;4908885;29;20043;-63
2022/04/03 14:23:36;;;;;;;1.83;1.50;;;;;;;;;;4904299;29;20035;-63
2022/04/03 14:26:06;;;;;;;1.25;1.13;;;;;;;;;;4906724;29;20028;-62
2022/04/03 14:28:33;;;;;;;1.52;1.10;;;;;;;;;;4904366;29;20036;-62
2022/04/03 14:30:59;;;;;;;1.27;1.05;;;;;;;;;;4907545;29;20024;-63
2022/04/03 14:33:24;;;;;;;3.33;1.30;;;;;;;;;;4911327;29;20040;-63
2022/04/03 14:35:50;;;;;;;1.27;1.17;;;;;;;;;;4908700;29;20049;-61
2022/04/03 14:38:16;;;;;;;4.53;1.13;;;;;;;;;;4906025;29;20091;-60
2022/04/03 14:40:41;;;;;;;3.58;1.20;;;;;;;;;;4906930;29;20123;-64
2022/04/03 14:43:07;;;;;;;2.20;1.00;;;;;;;;;;4910050;29;20115;-64
2022/04/03 14:45:32;;;;;;;1.85;1.10;;;;;;;;;;4907523;29;20029;-63